Portada
METAR-TAF:

METAR-TAF

Aeroports :

Funchal, Madeira, Portugal

latitud: 32-41-52N, longitud: 016-46-28W, altitud: 59 m

Observació

L'informe es va fer fa 25 minuts, a les 13:30 UTC
Vent 16 kt del Nord-Est, variant entre Nord i Est
Temperatura 25°C
Humitat 65%
Pressió 1021 hPa
Visibilitat 10 km o més
Escasses núvols a una alçada de 1600 ft

METAR: LPMA 151330Z 05016KT 010V090 9999 FEW016 25/18 Q1021

Hora: 14:55 (13:55 UTC)

Pronòstic

L'informe es va fer fa 2 hores i 55 minuts, a les 11:00 UTC
Pronòstic vàlid del 15 a les 12 UTC al 16 a les 12 UTC
Vent 13 kt del Nord/Nord-Est
Visibilitat 10 km o més
Núvols disperses a una alçada de 1600 ft
Evolucionant progressivament
l' 15 a les 21 UTC al 15 a les 24 UTC
Vent 5 kt amb direcció variable

TAF: LPMA 151100Z 1512/1612 03013KT 9999 SCT016 BECMG 1521/1524 VRB05KT

Observacions i pronòstics meteorològics de més de 4000 aeroports (METAR i TAF).

Les estacions disponibles són els punts grocs i vermells al mapa.

Posi el ratolí al punt desitjat per veure el nom de l'estació.

Feu clic per veure les observacions i els pronòstics meteorològics.

Per canviar el mapa: feu clic els botons verds amb una creu de color negre per apropar; al botó verd amb un guió per allunyar la imatge; o en les fletxes verdes per a mapes adjacents.


METAR-TAF: